sensor_id;sensor_type;location;lat;lon;timestamp;P1;durP1;ratioP1;P2;durP2;ratioP2
56680;SDS011;42558;52.388;13.390;2023-04-06T00:00:40;19.76;;;11.40;;
56680;SDS011;42558;52.388;13.390;2023-04-06T00:03:10;17.48;;;12.16;;
56680;SDS011;42558;52.388;13.390;2023-04-06T00:05:41;20.52;;;11.59;;
56680;SDS011;42558;52.388;13.390;2023-04-06T00:08:11;19.95;;;11.97;;
56680;SDS011;42558;52.388;13.390;2023-04-06T00:10:41;19.00;;;11.97;;
56680;SDS011;42558;52.388;13.390;2023-04-06T00:13:09;17.67;;;11.97;;
56680;SDS011;42558;52.388;13.390;2023-04-06T00:15:37;19.00;;;12.92;;
56680;SDS011;42558;52.388;13.390;2023-04-06T00:18:06;16.91;;;11.40;;
56680;SDS011;42558;52.388;13.390;2023-04-06T00:20:34;17.67;;;11.78;;
56680;SDS011;42558;52.388;13.390;2023-04-06T00:23:03;18.62;;;11.78;;
56680;SDS011;42558;52.388;13.390;2023-04-06T00:25:31;23.75;;;13.49;;
56680;SDS011;42558;52.388;13.390;2023-04-06T00:28:00;16.72;;;10.83;;
56680;SDS011;42558;52.388;13.390;2023-04-06T00:30:28;18.62;;;11.40;;
56680;SDS011;42558;52.388;13.390;2023-04-06T00:32:56;15.96;;;10.64;;
56680;SDS011;42558;52.388;13.390;2023-04-06T00:35:25;15.01;;;10.83;;
56680;SDS011;42558;52.388;13.390;2023-04-06T00:37:53;20.90;;;11.40;;
56680;SDS011;42558;52.388;13.390;2023-04-06T00:40:22;17.86;;;10.83;;
56680;SDS011;42558;52.388;13.390;2023-04-06T00:42:50;19.95;;;11.78;;
56680;SDS011;42558;52.388;13.390;2023-04-06T00:45:19;18.05;;;11.97;;
56680;SDS011;42558;52.388;13.390;2023-04-06T00:47:47;17.29;;;11.40;;
56680;SDS011;42558;52.388;13.390;2023-04-06T00:50:14;19.76;;;11.02;;
56680;SDS011;42558;52.388;13.390;2023-04-06T00:52:43;19.38;;;11.21;;
56680;SDS011;42558;52.388;13.390;2023-04-06T00:55:11;16.15;;;11.21;;
56680;SDS011;42558;52.388;13.390;2023-04-06T00:57:40;16.53;;;10.83;;
56680;SDS011;42558;52.388;13.390;2023-04-06T01:00:09;16.34;;;11.02;;
56680;SDS011;42558;52.388;13.390;2023-04-06T01:02:37;15.20;;;10.83;;
56680;SDS011;42558;52.388;13.390;2023-04-06T01:05:06;17.67;;;10.83;;
56680;SDS011;42558;52.388;13.390;2023-04-06T01:07:33;18.05;;;11.59;;
56680;SDS011;42558;52.388;13.390;2023-04-06T01:10:02;17.67;;;10.64;;
56680;SDS011;42558;52.388;13.390;2023-04-06T01:12:34;18.05;;;10.83;;
56680;SDS011;42558;52.388;13.390;2023-04-06T01:15:05;15.96;;;10.45;;
56680;SDS011;42558;52.388;13.390;2023-04-06T01:17:36;18.43;;;10.64;;
56680;SDS011;42558;52.388;13.390;2023-04-06T01:20:07;19.38;;;11.02;;
56680;SDS011;42558;52.388;13.390;2023-04-06T01:22:37;15.58;;;10.26;;
56680;SDS011;42558;52.388;13.390;2023-04-06T01:25:06;16.91;;;10.64;;
56680;SDS011;42558;52.388;13.390;2023-04-06T01:27:33;16.34;;;10.64;;
56680;SDS011;42558;52.388;13.390;2023-04-06T01:30:03;15.39;;;10.26;;
56680;SDS011;42558;52.388;13.390;2023-04-06T01:32:33;15.20;;;9.31;;
56680;SDS011;42558;52.388;13.390;2023-04-06T01:35:02;17.67;;;10.07;;
56680;SDS011;42558;52.388;13.390;2023-04-06T01:37:30;15.58;;;9.69;;
56680;SDS011;42558;52.388;13.390;2023-04-06T01:40:07;15.39;;;10.83;;
56680;SDS011;42558;52.388;13.390;2023-04-06T01:42:35;15.39;;;9.31;;
56680;SDS011;42558;52.388;13.390;2023-04-06T01:45:06;18.62;;;9.88;;
56680;SDS011;42558;52.388;13.390;2023-04-06T01:47:36;15.39;;;9.12;;
56680;SDS011;42558;52.388;13.390;2023-04-06T01:50:07;14.06;;;10.07;;
56680;SDS011;42558;52.388;13.390;2023-04-06T01:52:37;14.06;;;9.50;;
56680;SDS011;42558;52.388;13.390;2023-04-06T01:55:07;14.44;;;9.69;;
56680;SDS011;42558;52.388;13.390;2023-04-06T01:57:37;17.29;;;9.69;;
56680;SDS011;42558;52.388;13.390;2023-04-06T02:00:09;18.43;;;10.07;;
56680;SDS011;42558;52.388;13.390;2023-04-06T02:02:40;14.63;;;10.45;;
56680;SDS011;42558;52.388;13.390;2023-04-06T02:05:13;16.15;;;9.88;;
56680;SDS011;42558;52.388;13.390;2023-04-06T02:07:43;16.53;;;10.07;;
56680;SDS011;42558;52.388;13.390;2023-04-06T02:10:14;16.91;;;10.45;;
56680;SDS011;42558;52.388;13.390;2023-04-06T02:12:44;14.63;;;10.07;;
56680;SDS011;42558;52.388;13.390;2023-04-06T02:15:15;16.15;;;10.26;;
56680;SDS011;42558;52.388;13.390;2023-04-06T02:17:45;14.44;;;10.07;;
56680;SDS011;42558;52.388;13.390;2023-04-06T02:20:15;17.10;;;10.83;;
56680;SDS011;42558;52.388;13.390;2023-04-06T02:22:48;15.58;;;10.26;;
56680;SDS011;42558;52.388;13.390;2023-04-06T02:25:18;16.91;;;9.88;;
56680;SDS011;42558;52.388;13.390;2023-04-06T02:27:51;17.67;;;10.45;;
56680;SDS011;42558;52.388;13.390;2023-04-06T02:30:19;15.96;;;10.64;;
56680;SDS011;42558;52.388;13.390;2023-04-06T02:32:49;17.86;;;10.83;;
56680;SDS011;42558;52.388;13.390;2023-04-06T02:35:19;18.24;;;12.16;;
56680;SDS011;42558;52.388;13.390;2023-04-06T02:37:49;17.29;;;11.21;;
56680;SDS011;42558;52.388;13.390;2023-04-06T02:40:19;14.06;;;10.83;;
56680;SDS011;42558;52.388;13.390;2023-04-06T02:42:49;16.53;;;10.07;;
56680;SDS011;42558;52.388;13.390;2023-04-06T02:45:19;15.39;;;10.07;;
56680;SDS011;42558;52.388;13.390;2023-04-06T02:47:50;19.38;;;11.02;;
56680;SDS011;42558;52.388;13.390;2023-04-06T02:50:20;18.24;;;10.45;;
56680;SDS011;42558;52.388;13.390;2023-04-06T02:52:52;19.19;;;10.83;;
56680;SDS011;42558;52.388;13.390;2023-04-06T02:55:22;19.38;;;11.21;;
56680;SDS011;42558;52.388;13.390;2023-04-06T02:57:52;15.58;;;9.88;;
56680;SDS011;42558;52.388;13.390;2023-04-06T03:00:22;18.05;;;12.16;;
56680;SDS011;42558;52.388;13.390;2023-04-06T03:02:52;15.01;;;10.45;;
56680;SDS011;42558;52.388;13.390;2023-04-06T03:05:22;16.72;;;11.21;;
56680;SDS011;42558;52.388;13.390;2023-04-06T03:07:52;20.14;;;11.40;;
56680;SDS011;42558;52.388;13.390;2023-04-06T03:10:22;20.14;;;12.54;;
56680;SDS011;42558;52.388;13.390;2023-04-06T03:12:52;19.76;;;12.16;;
56680;SDS011;42558;52.388;13.390;2023-04-06T03:15:22;23.18;;;12.73;;
56680;SDS011;42558;52.388;13.390;2023-04-06T03:17:52;17.29;;;11.40;;
56680;SDS011;42558;52.388;13.390;2023-04-06T03:20:21;17.67;;;11.59;;
56680;SDS011;42558;52.388;13.390;2023-04-06T03:22:51;17.48;;;11.78;;
56680;SDS011;42558;52.388;13.390;2023-04-06T03:25:21;20.33;;;12.73;;
56680;SDS011;42558;52.388;13.390;2023-04-06T03:27:51;19.57;;;11.78;;
56680;SDS011;42558;52.388;13.390;2023-04-06T03:30:21;18.05;;;11.40;;
56680;SDS011;42558;52.388;13.390;2023-04-06T03:32:51;17.86;;;11.97;;
56680;SDS011;42558;52.388;13.390;2023-04-06T03:35:21;21.28;;;13.30;;
56680;SDS011;42558;52.388;13.390;2023-04-06T03:37:51;16.72;;;12.35;;
56680;SDS011;42558;52.388;13.390;2023-04-06T03:40:21;19.76;;;11.97;;
56680;SDS011;42558;52.388;13.390;2023-04-06T03:42:50;21.47;;;13.68;;
56680;SDS011;42558;52.388;13.390;2023-04-06T03:45:18;20.71;;;13.68;;
56680;SDS011;42558;52.388;13.390;2023-04-06T03:47:46;23.18;;;13.68;;
56680;SDS011;42558;52.388;13.390;2023-04-06T03:50:15;21.47;;;13.49;;
56680;SDS011;42558;52.388;13.390;2023-04-06T03:52:43;22.80;;;13.68;;
56680;SDS011;42558;52.388;13.390;2023-04-06T03:55:11;20.14;;;13.49;;
56680;SDS011;42558;52.388;13.390;2023-04-06T03:57:40;23.37;;;13.30;;
56680;SDS011;42558;52.388;13.390;2023-04-06T04:00:09;20.90;;;13.68;;
56680;SDS011;42558;52.388;13.390;2023-04-06T04:02:37;23.18;;;14.06;;
56680;SDS011;42558;52.388;13.390;2023-04-06T04:05:06;20.90;;;13.30;;
56680;SDS011;42558;52.388;13.390;2023-04-06T04:07:34;20.90;;;13.49;;
56680;SDS011;42558;52.388;13.390;2023-04-06T04:10:03;20.52;;;13.11;;
56680;SDS011;42558;52.388;13.390;2023-04-06T04:12:31;19.76;;;13.87;;
56680;SDS011;42558;52.388;13.390;2023-04-06T04:14:59;24.13;;;14.63;;
56680;SDS011;42558;52.388;13.390;2023-04-06T04:17:28;22.80;;;15.20;;
56680;SDS011;42558;52.388;13.390;2023-04-06T04:19:56;23.18;;;14.44;;
56680;SDS011;42558;52.388;13.390;2023-04-06T04:22:25;22.61;;;14.82;;
56680;SDS011;42558;52.388;13.390;2023-04-06T04:24:56;20.71;;;13.87;;
56680;SDS011;42558;52.388;13.390;2023-04-06T04:27:25;22.61;;;14.25;;
56680;SDS011;42558;52.388;13.390;2023-04-06T04:29:53;22.61;;;15.77;;
56680;SDS011;42558;52.388;13.390;2023-04-06T04:32:22;24.70;;;15.96;;
56680;SDS011;42558;52.388;13.390;2023-04-06T04:34:50;23.18;;;14.63;;
56680;SDS011;42558;52.388;13.390;2023-04-06T04:37:19;24.13;;;15.96;;
56680;SDS011;42558;52.388;13.390;2023-04-06T04:39:47;23.75;;;15.77;;
56680;SDS011;42558;52.388;13.390;2023-04-06T04:42:15;21.85;;;15.20;;
56680;SDS011;42558;52.388;13.390;2023-04-06T04:44:44;27.93;;;17.10;;
56680;SDS011;42558;52.388;13.390;2023-04-06T04:47:12;26.03;;;17.10;;
56680;SDS011;42558;52.388;13.390;2023-04-06T04:49:41;24.32;;;15.96;;
56680;SDS011;42558;52.388;13.390;2023-04-06T04:52:10;22.61;;;15.20;;
56680;SDS011;42558;52.388;13.390;2023-04-06T04:54:38;22.04;;;16.91;;
56680;SDS011;42558;52.388;13.390;2023-04-06T04:57:10;26.03;;;16.91;;
56680;SDS011;42558;52.388;13.390;2023-04-06T04:59:40;25.27;;;16.15;;
56680;SDS011;42558;52.388;13.390;2023-04-06T05:02:10;25.08;;;15.96;;
56680;SDS011;42558;52.388;13.390;2023-04-06T05:04:40;23.18;;;16.15;;
56680;SDS011;42558;52.388;13.390;2023-04-06T05:07:10;21.66;;;15.20;;
56680;SDS011;42558;52.388;13.390;2023-04-06T05:09:40;25.27;;;17.10;;
56680;SDS011;42558;52.388;13.390;2023-04-06T05:12:11;24.89;;;16.34;;
56680;SDS011;42558;52.388;13.390;2023-04-06T05:14:46;24.13;;;16.34;;
56680;SDS011;42558;52.388;13.390;2023-04-06T05:17:16;30.02;;;16.91;;
56680;SDS011;42558;52.388;13.390;2023-04-06T05:19:44;24.13;;;16.53;;
56680;SDS011;42558;52.388;13.390;2023-04-06T05:22:13;25.27;;;15.96;;
56680;SDS011;42558;52.388;13.390;2023-04-06T05:24:44;24.32;;;17.48;;
56680;SDS011;42558;52.388;13.390;2023-04-06T05:27:12;26.22;;;17.67;;
56680;SDS011;42558;52.388;13.390;2023-04-06T05:29:41;32.11;;;18.24;;
56680;SDS011;42558;52.388;13.390;2023-04-06T05:32:09;28.50;;;17.29;;
56680;SDS011;42558;52.388;13.390;2023-04-06T05:34:38;26.98;;;17.29;;
56680;SDS011;42558;52.388;13.390;2023-04-06T05:37:06;25.84;;;19.38;;
56680;SDS011;42558;52.388;13.390;2023-04-06T05:39:35;27.93;;;18.05;;
56680;SDS011;42558;52.388;13.390;2023-04-06T05:42:05;27.74;;;16.34;;
56680;SDS011;42558;52.388;13.390;2023-04-06T05:44:39;31.92;;;20.33;;
56680;SDS011;42558;52.388;13.390;2023-04-06T05:47:10;20.33;;;15.39;;
56680;SDS011;42558;52.388;13.390;2023-04-06T05:49:41;19.00;;;12.92;;
56680;SDS011;42558;52.388;13.390;2023-04-06T05:52:11;21.28;;;12.16;;
56680;SDS011;42558;52.388;13.390;2023-04-06T05:54:39;18.62;;;12.54;;
56680;SDS011;42558;52.388;13.390;2023-04-06T05:57:08;19.38;;;11.78;;
56680;SDS011;42558;52.388;13.390;2023-04-06T05:59:36;19.76;;;12.54;;
56680;SDS011;42558;52.388;13.390;2023-04-06T06:02:05;21.85;;;13.87;;
56680;SDS011;42558;52.388;13.390;2023-04-06T06:04:33;19.19;;;13.49;;
56680;SDS011;42558;52.388;13.390;2023-04-06T06:07:02;18.24;;;12.73;;
56680;SDS011;42558;52.388;13.390;2023-04-06T06:09:30;21.66;;;12.73;;
56680;SDS011;42558;52.388;13.390;2023-04-06T06:12:00;17.67;;;11.97;;
56680;SDS011;42558;52.388;13.390;2023-04-06T06:14:30;16.91;;;11.97;;
56680;SDS011;42558;52.388;13.390;2023-04-06T06:17:00;18.81;;;13.68;;
56680;SDS011;42558;52.388;13.390;2023-04-06T06:19:30;20.52;;;13.11;;
56680;SDS011;42558;52.388;13.390;2023-04-06T06:22:00;17.67;;;12.35;;
56680;SDS011;42558;52.388;13.390;2023-04-06T06:24:31;19.57;;;12.92;;
56680;SDS011;42558;52.388;13.390;2023-04-06T06:27:01;21.47;;;13.30;;
56680;SDS011;42558;52.388;13.390;2023-04-06T06:29:31;16.72;;;11.97;;
56680;SDS011;42558;52.388;13.390;2023-04-06T06:32:01;17.67;;;12.92;;
56680;SDS011;42558;52.388;13.390;2023-04-06T06:34:31;23.94;;;14.63;;
56680;SDS011;42558;52.388;13.390;2023-04-06T06:37:01;18.05;;;12.54;;
56680;SDS011;42558;52.388;13.390;2023-04-06T06:39:31;18.05;;;12.16;;
56680;SDS011;42558;52.388;13.390;2023-04-06T06:42:01;22.04;;;13.49;;
56680;SDS011;42558;52.388;13.390;2023-04-06T06:44:31;26.41;;;13.11;;
56680;SDS011;42558;52.388;13.390;2023-04-06T06:47:01;15.96;;;11.97;;
56680;SDS011;42558;52.388;13.390;2023-04-06T06:49:31;18.24;;;12.35;;
56680;SDS011;42558;52.388;13.390;2023-04-06T06:52:01;18.81;;;12.16;;
56680;SDS011;42558;52.388;13.390;2023-04-06T06:54:31;20.33;;;11.78;;
56680;SDS011;42558;52.388;13.390;2023-04-06T06:57:01;16.72;;;10.64;;
56680;SDS011;42558;52.388;13.390;2023-04-06T06:59:31;15.01;;;9.88;;
56680;SDS011;42558;52.388;13.390;2023-04-06T07:02:01;18.43;;;11.21;;
56680;SDS011;42558;52.388;13.390;2023-04-06T07:04:31;14.06;;;10.07;;
56680;SDS011;42558;52.388;13.390;2023-04-06T07:07:01;14.82;;;9.50;;
56680;SDS011;42558;52.388;13.390;2023-04-06T07:09:32;21.28;;;11.02;;
56680;SDS011;42558;52.388;13.390;2023-04-06T07:12:03;14.25;;;9.69;;
56680;SDS011;42558;52.388;13.390;2023-04-06T07:14:33;22.42;;;11.21;;
56680;SDS011;42558;52.388;13.390;2023-04-06T07:17:03;16.53;;;10.83;;
56680;SDS011;42558;52.388;13.390;2023-04-06T07:19:33;17.29;;;11.21;;
56680;SDS011;42558;52.388;13.390;2023-04-06T07:22:03;16.15;;;11.21;;
56680;SDS011;42558;52.388;13.390;2023-04-06T07:24:34;15.58;;;10.07;;
56680;SDS011;42558;52.388;13.390;2023-04-06T07:27:04;15.20;;;9.69;;
56680;SDS011;42558;52.388;13.390;2023-04-06T07:29:34;17.29;;;10.45;;
56680;SDS011;42558;52.388;13.390;2023-04-06T07:32:04;13.68;;;9.50;;
56680;SDS011;42558;52.388;13.390;2023-04-06T07:34:34;16.91;;;9.50;;
56680;SDS011;42558;52.388;13.390;2023-04-06T07:37:04;16.91;;;10.45;;
56680;SDS011;42558;52.388;13.390;2023-04-06T07:39:34;17.48;;;9.31;;
56680;SDS011;42558;52.388;13.390;2023-04-06T07:42:05;18.43;;;9.12;;
56680;SDS011;42558;52.388;13.390;2023-04-06T07:44:39;16.34;;;9.88;;
56680;SDS011;42558;52.388;13.390;2023-04-06T07:47:06;13.68;;;8.36;;
56680;SDS011;42558;52.388;13.390;2023-04-06T07:49:36;14.63;;;8.74;;
56680;SDS011;42558;52.388;13.390;2023-04-06T07:52:06;13.30;;;8.17;;
56680;SDS011;42558;52.388;13.390;2023-04-06T07:54:36;13.11;;;7.79;;
56680;SDS011;42558;52.388;13.390;2023-04-06T07:57:06;14.63;;;8.36;;
56680;SDS011;42558;52.388;13.390;2023-04-06T07:59:35;14.25;;;8.74;;
56680;SDS011;42558;52.388;13.390;2023-04-06T08:02:06;17.10;;;8.55;;
56680;SDS011;42558;52.388;13.390;2023-04-06T08:04:36;18.05;;;10.45;;
56680;SDS011;42558;52.388;13.390;2023-04-06T08:07:05;15.20;;;9.88;;
56680;SDS011;42558;52.388;13.390;2023-04-06T08:09:36;16.91;;;10.07;;
56680;SDS011;42558;52.388;13.390;2023-04-06T08:12:07;15.96;;;8.36;;
56680;SDS011;42558;52.388;13.390;2023-04-06T08:14:40;16.15;;;8.74;;
56680;SDS011;42558;52.388;13.390;2023-04-06T08:17:08;15.01;;;8.17;;
56680;SDS011;42558;52.388;13.390;2023-04-06T08:19:37;12.92;;;7.60;;
56680;SDS011;42558;52.388;13.390;2023-04-06T08:22:07;11.40;;;7.98;;
56680;SDS011;42558;52.388;13.390;2023-04-06T08:24:37;12.73;;;7.22;;
56680;SDS011;42558;52.388;13.390;2023-04-06T08:27:07;15.58;;;6.08;;
56680;SDS011;42558;52.388;13.390;2023-04-06T08:29:37;12.16;;;6.84;;
56680;SDS011;42558;52.388;13.390;2023-04-06T08:32:07;10.83;;;5.89;;
56680;SDS011;42558;52.388;13.390;2023-04-06T08:34:37;9.69;;;5.32;;
56680;SDS011;42558;52.388;13.390;2023-04-06T08:37:06;9.12;;;5.13;;
56680;SDS011;42558;52.388;13.390;2023-04-06T08:39:36;10.64;;;5.89;;
56680;SDS011;42558;52.388;13.390;2023-04-06T08:42:16;9.88;;;4.94;;
56680;SDS011;42558;52.388;13.390;2023-04-06T08:44:49;9.50;;;5.13;;
56680;SDS011;42558;52.388;13.390;2023-04-06T08:47:21;8.93;;;4.37;;
56680;SDS011;42558;52.388;13.390;2023-04-06T08:49:53;12.92;;;4.37;;
56680;SDS011;42558;52.388;13.390;2023-04-06T08:52:25;9.69;;;4.94;;
56680;SDS011;42558;52.388;13.390;2023-04-06T08:54:55;8.17;;;4.37;;
56680;SDS011;42558;52.388;13.390;2023-04-06T08:57:25;8.36;;;4.37;;
56680;SDS011;42558;52.388;13.390;2023-04-06T08:59:56;8.36;;;3.99;;
56680;SDS011;42558;52.388;13.390;2023-04-06T09:02:23;11.59;;;4.75;;
56680;SDS011;42558;52.388;13.390;2023-04-06T09:04:53;9.12;;;4.94;;
56680;SDS011;42558;52.388;13.390;2023-04-06T09:07:24;10.26;;;4.18;;
56680;SDS011;42558;52.388;13.390;2023-04-06T09:09:54;9.69;;;4.94;;
56680;SDS011;42558;52.388;13.390;2023-04-06T09:12:30;9.88;;;4.18;;
56680;SDS011;42558;52.388;13.390;2023-04-06T09:15:00;10.07;;;3.99;;
56680;SDS011;42558;52.388;13.390;2023-04-06T09:17:32;10.45;;;4.37;;
56680;SDS011;42558;52.388;13.390;2023-04-06T09:20:03;9.88;;;4.18;;
56680;SDS011;42558;52.388;13.390;2023-04-06T09:22:40;9.88;;;4.18;;
56680;SDS011;42558;52.388;13.390;2023-04-06T09:25:18;10.26;;;3.80;;
56680;SDS011;42558;52.388;13.390;2023-04-06T09:27:59;8.93;;;3.61;;
56680;SDS011;42558;52.388;13.390;2023-04-06T09:30:31;6.84;;;3.61;;
56680;SDS011;42558;52.388;13.390;2023-04-06T09:33:01;7.79;;;3.23;;
56680;SDS011;42558;52.388;13.390;2023-04-06T09:35:32;7.22;;;3.42;;
56680;SDS011;42558;52.388;13.390;2023-04-06T09:38:10;7.03;;;3.61;;
56680;SDS011;42558;52.388;13.390;2023-04-06T09:40:49;7.98;;;3.99;;
56680;SDS011;42558;52.388;13.390;2023-04-06T09:43:29;7.60;;;3.23;;
56680;SDS011;42558;52.388;13.390;2023-04-06T09:46:00;8.17;;;3.23;;
56680;SDS011;42558;52.388;13.390;2023-04-06T09:48:33;7.79;;;3.61;;
56680;SDS011;42558;52.388;13.390;2023-04-06T09:51:06;8.74;;;3.99;;
56680;SDS011;42558;52.388;13.390;2023-04-06T09:53:42;9.69;;;3.61;;
56680;SDS011;42558;52.388;13.390;2023-04-06T09:56:20;10.07;;;3.61;;
56680;SDS011;42558;52.388;13.390;2023-04-06T09:58:58;7.22;;;3.61;;
56680;SDS011;42558;52.388;13.390;2023-04-06T10:01:33;7.22;;;3.42;;
56680;SDS011;42558;52.388;13.390;2023-04-06T10:04:24;7.03;;;3.42;;
56680;SDS011;42558;52.388;13.390;2023-04-06T10:07:07;8.74;;;3.99;;
56680;SDS011;42558;52.388;13.390;2023-04-06T10:09:41;8.17;;;3.61;;
56680;SDS011;42558;52.388;13.390;2023-04-06T10:12:16;8.55;;;4.37;;
56680;SDS011;42558;52.388;13.390;2023-04-06T10:14:46;8.74;;;4.18;;
56680;SDS011;42558;52.388;13.390;2023-04-06T10:17:16;9.12;;;3.99;;
56680;SDS011;42558;52.388;13.390;2023-04-06T10:19:55;8.36;;;4.37;;
56680;SDS011;42558;52.388;13.390;2023-04-06T10:25:30;7.41;;;3.80;;
56680;SDS011;42558;52.388;13.390;2023-04-06T10:28:06;8.74;;;4.56;;
56680;SDS011;42558;52.388;13.390;2023-04-06T10:30:43;7.60;;;3.61;;
56680;SDS011;42558;52.388;13.390;2023-04-06T10:33:18;7.98;;;4.18;;
56680;SDS011;42558;52.388;13.390;2023-04-06T10:35:49;8.55;;;4.94;;
56680;SDS011;42558;52.388;13.390;2023-04-06T10:38:19;9.50;;;4.56;;
56680;SDS011;42558;52.388;13.390;2023-04-06T10:40:51;8.93;;;3.61;;
56680;SDS011;42558;52.388;13.390;2023-04-06T10:43:22;6.65;;;3.61;;
56680;SDS011;42558;52.388;13.390;2023-04-06T10:45:57;8.17;;;4.37;;
56680;SDS011;42558;52.388;13.390;2023-04-06T10:51:17;8.93;;;4.18;;
56680;SDS011;42558;52.388;13.390;2023-04-06T10:53:48;7.79;;;3.99;;
56680;SDS011;42558;52.388;13.390;2023-04-06T10:56:22;7.41;;;3.99;;
56680;SDS011;42558;52.388;13.390;2023-04-06T10:58:55;8.36;;;3.61;;
56680;SDS011;42558;52.388;13.390;2023-04-06T11:01:25;9.12;;;4.56;;
56680;SDS011;42558;52.388;13.390;2023-04-06T11:03:57;8.36;;;4.37;;
56680;SDS011;42558;52.388;13.390;2023-04-06T11:06:30;7.98;;;3.80;;
56680;SDS011;42558;52.388;13.390;2023-04-06T11:09:01;7.03;;;3.99;;
56680;SDS011;42558;52.388;13.390;2023-04-06T11:11:31;8.36;;;4.56;;
56680;SDS011;42558;52.388;13.390;2023-04-06T11:14:01;9.12;;;4.75;;
56680;SDS011;42558;52.388;13.390;2023-04-06T11:16:33;11.02;;;4.94;;
56680;SDS011;42558;52.388;13.390;2023-04-06T11:19:04;8.55;;;4.94;;
56680;SDS011;42558;52.388;13.390;2023-04-06T11:21:41;8.93;;;5.51;;
56680;SDS011;42558;52.388;13.390;2023-04-06T11:26:58;8.17;;;4.94;;
56680;SDS011;42558;52.388;13.390;2023-04-06T11:29:31;8.36;;;4.37;;
56680;SDS011;42558;52.388;13.390;2023-04-06T11:32:04;11.21;;;4.56;;
56680;SDS011;42558;52.388;13.390;2023-04-06T11:34:37;8.17;;;4.56;;
56680;SDS011;42558;52.388;13.390;2023-04-06T11:37:11;9.50;;;4.75;;
56680;SDS011;42558;52.388;13.390;2023-04-06T11:39:47;7.60;;;4.37;;
56680;SDS011;42558;52.388;13.390;2023-04-06T11:42:27;10.26;;;5.32;;
56680;SDS011;42558;52.388;13.390;2023-04-06T11:44:59;9.69;;;4.37;;
56680;SDS011;42558;52.388;13.390;2023-04-06T11:47:34;8.55;;;4.75;;
56680;SDS011;42558;52.388;13.390;2023-04-06T11:50:13;7.98;;;4.94;;
56680;SDS011;42558;52.388;13.390;2023-04-06T11:52:42;7.22;;;4.56;;
56680;SDS011;42558;52.388;13.390;2023-04-06T11:55:12;8.93;;;5.89;;
56680;SDS011;42558;52.388;13.390;2023-04-06T11:57:47;9.69;;;5.32;;
56680;SDS011;42558;52.388;13.390;2023-04-06T12:00:17;10.64;;;5.51;;
56680;SDS011;42558;52.388;13.390;2023-04-06T12:02:48;10.07;;;5.13;;
56680;SDS011;42558;52.388;13.390;2023-04-06T12:05:16;9.50;;;5.89;;
56680;SDS011;42558;52.388;13.390;2023-04-06T12:07:44;9.50;;;4.94;;
56680;SDS011;42558;52.388;13.390;2023-04-06T12:10:13;9.50;;;5.13;;
56680;SDS011;42558;52.388;13.390;2023-04-06T12:12:41;7.79;;;5.51;;
56680;SDS011;42558;52.388;13.390;2023-04-06T12:15:10;8.93;;;4.94;;
56680;SDS011;42558;52.388;13.390;2023-04-06T12:17:38;10.07;;;5.51;;
56680;SDS011;42558;52.388;13.390;2023-04-06T12:20:07;8.55;;;5.51;;
56680;SDS011;42558;52.388;13.390;2023-04-06T12:22:53;8.36;;;5.51;;
56680;SDS011;42558;52.388;13.390;2023-04-06T12:25:21;10.07;;;5.70;;
56680;SDS011;42558;52.388;13.390;2023-04-06T12:27:49;10.07;;;6.08;;
56680;SDS011;42558;52.388;13.390;2023-04-06T12:30:18;8.93;;;6.27;;
56680;SDS011;42558;52.388;13.390;2023-04-06T12:32:46;10.26;;;6.08;;
56680;SDS011;42558;52.388;13.390;2023-04-06T12:35:18;8.93;;;5.70;;
56680;SDS011;42558;52.388;13.390;2023-04-06T12:37:46;11.40;;;6.27;;
56680;SDS011;42558;52.388;13.390;2023-04-06T12:40:15;10.07;;;5.70;;
56680;SDS011;42558;52.388;13.390;2023-04-06T12:42:43;7.98;;;5.13;;
56680;SDS011;42558;52.388;13.390;2023-04-06T12:45:14;11.40;;;6.27;;
56680;SDS011;42558;52.388;13.390;2023-04-06T12:47:45;11.21;;;6.84;;
56680;SDS011;42558;52.388;13.390;2023-04-06T12:50:15;10.26;;;6.27;;
56680;SDS011;42558;52.388;13.390;2023-04-06T12:52:44;11.21;;;6.84;;
56680;SDS011;42558;52.388;13.390;2023-04-06T12:55:15;9.31;;;5.70;;
56680;SDS011;42558;52.388;13.390;2023-04-06T12:57:44;9.31;;;6.27;;
56680;SDS011;42558;52.388;13.390;2023-04-06T13:00:15;10.07;;;6.84;;
56680;SDS011;42558;52.388;13.390;2023-04-06T13:02:45;8.74;;;6.27;;
56680;SDS011;42558;52.388;13.390;2023-04-06T13:05:15;9.69;;;5.51;;
56680;SDS011;42558;52.388;13.390;2023-04-06T13:07:47;9.31;;;6.27;;
56680;SDS011;42558;52.388;13.390;2023-04-06T13:10:17;8.36;;;5.89;;
56680;SDS011;42558;52.388;13.390;2023-04-06T13:12:46;10.07;;;6.65;;
56680;SDS011;42558;52.388;13.390;2023-04-06T13:15:16;9.50;;;6.27;;
56680;SDS011;42558;52.388;13.390;2023-04-06T13:17:46;10.83;;;6.27;;
56680;SDS011;42558;52.388;13.390;2023-04-06T13:20:17;9.88;;;6.27;;
56680;SDS011;42558;52.388;13.390;2023-04-06T13:22:46;10.26;;;6.46;;
56680;SDS011;42558;52.388;13.390;2023-04-06T13:25:16;11.40;;;5.89;;
56680;SDS011;42558;52.388;13.390;2023-04-06T13:27:46;9.88;;;6.27;;
56680;SDS011;42558;52.388;13.390;2023-04-06T13:30:17;9.12;;;5.89;;
56680;SDS011;42558;52.388;13.390;2023-04-06T13:32:47;12.73;;;6.46;;
56680;SDS011;42558;52.388;13.390;2023-04-06T13:35:17;11.59;;;6.08;;
56680;SDS011;42558;52.388;13.390;2023-04-06T13:37:47;8.55;;;5.51;;
56680;SDS011;42558;52.388;13.390;2023-04-06T13:40:18;8.74;;;5.51;;
56680;SDS011;42558;52.388;13.390;2023-04-06T13:42:49;14.25;;;5.89;;
56680;SDS011;42558;52.388;13.390;2023-04-06T13:45:20;10.07;;;5.89;;
56680;SDS011;42558;52.388;13.390;2023-04-06T13:47:49;12.54;;;5.70;;
56680;SDS011;42558;52.388;13.390;2023-04-06T13:50:20;11.02;;;6.27;;
56680;SDS011;42558;52.388;13.390;2023-04-06T13:52:50;9.12;;;5.13;;
56680;SDS011;42558;52.388;13.390;2023-04-06T13:55:20;9.31;;;5.51;;
56680;SDS011;42558;52.388;13.390;2023-04-06T13:57:50;8.55;;;5.32;;
56680;SDS011;42558;52.388;13.390;2023-04-06T14:00:21;8.55;;;5.51;;
56680;SDS011;42558;52.388;13.390;2023-04-06T14:02:53;9.31;;;5.32;;
56680;SDS011;42558;52.388;13.390;2023-04-06T14:05:23;9.12;;;5.13;;
56680;SDS011;42558;52.388;13.390;2023-04-06T14:07:53;9.69;;;5.51;;
56680;SDS011;42558;52.388;13.390;2023-04-06T14:10:23;9.31;;;5.70;;
56680;SDS011;42558;52.388;13.390;2023-04-06T14:12:56;10.07;;;5.70;;
56680;SDS011;42558;52.388;13.390;2023-04-06T14:15:26;10.26;;;5.70;;
56680;SDS011;42558;52.388;13.390;2023-04-06T14:17:57;11.02;;;5.51;;
56680;SDS011;42558;52.388;13.390;2023-04-06T14:20:27;8.74;;;5.13;;
56680;SDS011;42558;52.388;13.390;2023-04-06T14:23:00;9.69;;;6.08;;
56680;SDS011;42558;52.388;13.390;2023-04-06T14:25:29;9.69;;;5.70;;
56680;SDS011;42558;52.388;13.390;2023-04-06T14:28:03;11.02;;;5.89;;
56680;SDS011;42558;52.388;13.390;2023-04-06T14:30:30;8.74;;;5.51;;
56680;SDS011;42558;52.388;13.390;2023-04-06T14:33:00;8.74;;;5.32;;
56680;SDS011;42558;52.388;13.390;2023-04-06T14:35:30;9.88;;;5.13;;
56680;SDS011;42558;52.388;13.390;2023-04-06T14:38:01;10.45;;;6.27;;
56680;SDS011;42558;52.388;13.390;2023-04-06T14:40:34;7.98;;;4.94;;
56680;SDS011;42558;52.388;13.390;2023-04-06T14:43:03;10.07;;;5.89;;
56680;SDS011;42558;52.388;13.390;2023-04-06T14:45:34;8.93;;;6.08;;